Time;durP1;ratioP1;P1;durP2;ratioP2;P2;SDS_P1;SDS_P2;PMS_P1;PMS_P2;Temp;Humidity;BMP_temperature;BMP_pressure;BME280_temperature;BME280_humidity;BME280_pressure;Samples;Min_cycle;Max_cycle;Signal;HPM_P1;HPM_P2
2022/04/04 00:00:09;;;;;;;1.40;1.20;;;21.80;32.90;;;;;;5052485;28;20420;-63
2022/04/04 00:02:35;;;;;;;1.50;1.20;;;21.80;32.90;;;;;;5067751;28;20386;-63
2022/04/04 00:05:01;;;;;;;2.45;1.30;;;21.80;33.00;;;;;;5052222;28;20881;-63
2022/04/04 00:07:27;;;;;;;1.83;1.20;;;21.80;33.20;;;;;;5052397;28;20471;-63
2022/04/04 00:09:53;;;;;;;1.45;1.00;;;21.80;33.30;;;;;;5051920;28;20389;-63
2022/04/04 00:12:19;;;;;;;1.60;1.20;;;21.80;33.20;;;;;;5067432;28;20385;-63
2022/04/04 00:14:45;;;;;;;1.55;1.20;;;21.80;33.10;;;;;;5051636;28;20433;-64
2022/04/04 00:17:11;;;;;;;1.40;1.10;;;21.80;33.10;;;;;;5051759;28;20441;-63
2022/04/04 00:19:36;;;;;;;2.05;1.13;;;21.80;33.20;;;;;;5051724;28;20512;-63
2022/04/04 00:22:02;;;;;;;1.30;1.00;;;21.80;33.20;;;;;;5051779;28;20899;-63
2022/04/04 00:24:28;;;;;;;1.40;1.17;;;21.80;33.20;;;;;;5051893;28;20923;-64
2022/04/04 00:26:54;;;;;;;1.50;1.10;;;21.70;33.20;;;;;;5051361;28;20508;-63
2022/04/04 00:29:19;;;;;;;1.60;1.10;;;21.70;33.20;;;;;;5051733;28;20390;-63
2022/04/04 00:31:45;;;;;;;1.33;1.10;;;21.70;33.30;;;;;;5051680;28;20390;-63
2022/04/04 00:34:11;;;;;;;1.55;1.00;;;21.70;33.30;;;;;;5051598;28;20396;-63
2022/04/04 00:36:38;;;;;;;1.85;1.08;;;21.70;33.30;;;;;;5051292;28;20458;-63
2022/04/04 00:39:04;;;;;;;1.60;1.02;;;21.60;33.80;;;;;;5051330;28;20476;-64
2022/04/04 00:41:30;;;;;;;1.45;1.30;;;21.60;33.30;;;;;;5051386;28;20515;-63
2022/04/04 00:43:56;;;;;;;1.70;1.13;;;21.60;33.20;;;;;;5051524;28;20390;-63
2022/04/04 00:46:22;;;;;;;1.00;0.90;;;21.60;33.20;;;;;;5051467;28;20501;-63
2022/04/04 00:48:48;;;;;;;1.60;0.97;;;21.60;33.20;;;;;;5051022;28;20389;-63
2022/04/04 00:51:13;;;;;;;1.15;0.95;;;21.60;33.10;;;;;;5051410;28;20397;-63
2022/04/04 00:53:39;;;;;;;1.40;1.00;;;21.60;33.20;;;;;;5051465;28;20397;-63
2022/04/04 00:56:06;;;;;;;1.40;1.10;;;21.60;33.20;;;;;;5051618;28;20857;-63
2022/04/04 00:58:37;;;;;;;1.20;1.00;;;21.60;33.20;;;;;;5051559;28;20488;-63
2022/04/04 01:01:03;;;;;;;1.52;1.10;;;21.60;33.30;;;;;;5051402;28;20499;-63
2022/04/04 01:03:29;;;;;;;1.58;1.00;;;21.60;33.30;;;;;;5051557;28;20417;-63
2022/04/04 01:05:57;;;;;;;1.23;1.00;;;21.60;33.20;;;;;;5051449;28;20385;-63
2022/04/04 01:08:23;;;;;;;1.67;1.20;;;21.60;33.20;;;;;;5051412;28;20414;-64
2022/04/04 01:10:49;;;;;;;1.48;1.00;;;21.60;33.20;;;;;;5050966;28;20475;-63
2022/04/04 01:13:15;;;;;;;1.20;1.00;;;21.50;33.20;;;;;;5051400;28;20432;-63
2022/04/04 01:15:41;;;;;;;2.00;1.10;;;21.50;33.10;;;;;;5066680;28;20416;-64
2022/04/04 01:18:08;;;;;;;1.23;0.87;;;21.50;33.10;;;;;;5051365;28;20382;-63
2022/04/04 01:20:35;;;;;;;1.00;0.75;;;21.50;33.10;;;;;;5051244;28;20475;-63
2022/04/04 01:23:00;;;;;;;1.15;0.88;;;21.50;33.00;;;;;;5050949;28;20386;-63
2022/04/04 01:25:30;;;;;;;1.23;0.90;;;21.50;33.10;;;;;;5051358;28;20468;-63
2022/04/04 01:27:57;;;;;;;1.10;0.90;;;21.50;33.10;;;;;;5051310;28;20394;-63
2022/04/04 01:30:23;;;;;;;1.10;1.00;;;21.50;33.00;;;;;;5051285;28;20400;-63
2022/04/04 01:32:49;;;;;;;1.40;1.05;;;21.50;33.00;;;;;;5053002;28;20405;-63
2022/04/04 01:35:20;;;;;;;1.30;0.90;;;21.50;33.00;;;;;;5055134;28;20388;-63
2022/04/04 01:37:46;;;;;;;1.33;0.90;;;21.50;33.00;;;;;;5055337;28;20865;-63
2022/04/04 01:40:12;;;;;;;1.17;1.00;;;21.50;33.00;;;;;;5055164;28;20409;-63
2022/04/04 01:42:39;;;;;;;1.80;1.00;;;21.50;32.90;;;;;;5054793;28;20393;-63
2022/04/04 01:45:08;;;;;;;1.35;0.80;;;21.50;32.80;;;;;;5054542;28;21163;-63
2022/04/04 01:47:34;;;;;;;1.30;1.02;;;21.50;32.70;;;;;;5054786;28;20377;-63
2022/04/04 01:50:00;;;;;;;1.35;0.90;;;21.50;32.70;;;;;;5054787;28;20381;-63
2022/04/04 01:52:26;;;;;;;1.40;1.00;;;21.50;33.20;;;;;;5054749;28;20416;-63
2022/04/04 01:54:51;;;;;;;1.20;1.02;;;21.50;32.60;;;;;;5054282;28;20397;-63
2022/04/04 01:57:17;;;;;;;1.27;0.97;;;21.50;32.70;;;;;;5054641;28;20380;-63
2022/04/04 01:59:43;;;;;;;2.20;1.10;;;21.50;32.70;;;;;;5054525;28;20412;-63
2022/04/04 02:02:09;;;;;;;0.95;0.80;;;21.50;32.80;;;;;;5054489;28;20393;-64
2022/04/04 02:04:35;;;;;;;1.35;0.95;;;21.50;32.80;;;;;;5054541;28;20377;-63
2022/04/04 02:07:01;;;;;;;1.23;1.07;;;21.50;32.80;;;;;;5054000;28;20396;-63
2022/04/04 02:09:27;;;;;;;1.10;0.90;;;21.50;32.60;;;;;;5054722;28;20373;-63
2022/04/04 02:11:53;;;;;;;1.58;1.00;;;21.40;32.70;;;;;;5054651;28;20754;-63
2022/04/04 02:14:19;;;;;;;1.08;0.80;;;21.40;32.70;;;;;;5069976;28;20381;-63
2022/04/04 02:16:45;;;;;;;0.93;0.80;;;21.40;32.70;;;;;;5054282;28;20768;-63
2022/04/04 02:19:10;;;;;;;1.00;0.90;;;21.40;32.70;;;;;;5069715;28;20409;-63
2022/04/04 02:21:37;;;;;;;1.60;0.70;;;21.40;32.50;;;;;;5054610;28;20440;-63
2022/04/04 02:24:04;;;;;;;1.10;0.80;;;21.40;32.60;;;;;;5054397;28;20853;-63
2022/04/04 02:26:29;;;;;;;1.60;0.93;;;21.40;32.50;;;;;;5054548;28;20393;-63
2022/04/04 02:28:55;;;;;;;1.30;0.90;;;21.40;32.60;;;;;;5053903;28;20749;-63
2022/04/04 02:31:21;;;;;;;1.20;0.90;;;21.40;32.50;;;;;;5054513;28;20420;-63
2022/04/04 02:33:47;;;;;;;1.40;1.00;;;21.40;32.50;;;;;;5054323;28;20392;-63
2022/04/04 02:36:12;;;;;;;1.23;1.00;;;21.40;32.50;;;;;;5054491;28;20401;-63
2022/04/04 02:38:38;;;;;;;1.23;0.90;;;21.30;32.50;;;;;;5053970;28;20386;-63
2022/04/04 02:41:04;;;;;;;1.00;0.80;;;21.30;32.40;;;;;;5053482;28;20420;-63
2022/04/04 02:43:31;;;;;;;1.50;0.90;;;21.40;32.60;;;;;;5053705;28;20389;-63
2022/04/04 02:45:57;;;;;;;1.27;0.80;;;21.40;32.50;;;;;;5053732;28;20405;-63
2022/04/04 02:48:23;;;;;;;1.08;0.73;;;21.40;32.50;;;;;;5069154;28;20393;-63
2022/04/04 02:50:52;;;;;;;0.88;0.80;;;21.40;32.50;;;;;;5052603;28;20823;-64
2022/04/04 02:53:17;;;;;;;1.30;1.00;;;21.40;32.30;;;;;;5053879;28;20401;-63
2022/04/04 02:58:28;;;;;;;1.13;0.73;;;21.30;32.40;;;;;;5054152;28;20378;-63
2022/04/04 03:00:53;;;;;;;2.03;1.13;;;21.30;32.20;;;;;;5054356;28;20508;-83
2022/04/04 03:12:03;;;;;;;0.98;0.80;;;21.30;32.20;;;;;;5918452;23;20874;-63
2022/04/04 03:14:29;;;;;;;1.67;0.90;;;21.30;32.20;;;;;;5009121;28;20457;-63
2022/04/04 03:16:55;;;;;;;0.95;0.80;;;21.30;32.30;;;;;;5008939;28;20410;-63
2022/04/04 03:19:21;;;;;;;1.10;0.90;;;21.30;32.30;;;;;;5009127;28;20399;-63
2022/04/04 03:21:47;;;;;;;1.40;1.00;;;21.30;32.30;;;;;;4993862;28;20561;-63
2022/04/04 03:24:13;;;;;;;0.93;0.77;;;21.30;32.30;;;;;;4993553;28;20962;-63
2022/04/04 03:26:38;;;;;;;1.42;0.90;;;21.30;32.30;;;;;;5009556;28;20406;-63
2022/04/04 03:29:04;;;;;;;1.67;1.00;;;21.30;32.20;;;;;;5008783;28;20438;-63
2022/04/04 03:31:30;;;;;;;1.13;0.93;;;21.30;32.30;;;;;;5008902;28;20395;-63
2022/04/04 03:33:56;;;;;;;1.10;0.90;;;21.30;32.30;;;;;;4993839;28;20398;-63
2022/04/04 03:36:21;;;;;;;1.60;0.90;;;21.30;32.70;;;;;;4993781;28;20390;-63
2022/04/04 03:38:47;;;;;;;2.10;1.10;;;21.40;33.20;;;;;;5008198;28;20945;-63
2022/04/04 03:41:13;;;;;;;2.10;1.00;;;21.50;33.80;;;;;;4993469;28;20433;-63
2022/04/04 03:43:39;;;;;;;2.17;1.17;;;21.50;34.20;;;;;;5008688;28;20398;-63
2022/04/04 03:46:04;;;;;;;1.60;1.20;;;21.50;34.70;;;;;;4993200;28;20405;-63
2022/04/04 03:48:30;;;;;;;2.08;1.23;;;21.50;34.70;;;;;;4993325;28;20794;-62
2022/04/04 03:50:55;;;;;;;1.80;1.10;;;21.50;34.50;;;;;;4992538;28;20663;-63
2022/04/04 03:53:22;;;;;;;1.58;1.00;;;21.50;34.60;;;;;;4993022;28;20932;-63
2022/04/04 03:55:50;;;;;;;1.90;1.20;;;21.50;34.70;;;;;;5007725;28;20402;-63
2022/04/04 03:58:16;;;;;;;1.73;1.13;;;21.50;34.60;;;;;;4993245;28;20497;-63
2022/04/04 04:00:41;;;;;;;3.00;1.10;;;21.50;34.60;;;;;;4993437;28;20946;-62
2022/04/04 04:03:08;;;;;;;1.60;1.20;;;21.50;34.50;;;;;;4992415;28;20406;-62
2022/04/04 04:05:35;;;;;;;1.38;1.02;;;21.50;34.40;;;;;;4992955;28;20437;-63
2022/04/04 04:08:01;;;;;;;2.25;1.10;;;21.60;34.30;;;;;;5007977;28;20429;-63
2022/04/04 04:10:27;;;;;;;1.45;1.17;;;21.60;34.40;;;;;;5007838;28;20395;-63
2022/04/04 04:12:53;;;;;;;1.23;1.00;;;21.60;34.00;;;;;;4992468;28;20453;-63
2022/04/04 04:15:21;;;;;;;1.83;1.00;;;21.60;34.40;;;;;;5008090;28;20489;-63
2022/04/04 04:17:51;;;;;;;1.35;0.90;;;21.60;34.40;;;;;;4993035;28;20878;-63
2022/04/04 04:20:25;;;;;;;1.23;0.93;;;21.60;34.30;;;;;;4992487;28;20509;-63
2022/04/04 04:23:02;;;;;;;1.33;1.00;;;21.50;34.30;;;;;;4992568;28;20390;-63
2022/04/04 04:25:30;;;;;;;2.70;1.15;;;21.60;34.40;;;;;;4992821;28;20536;-63
2022/04/04 04:27:57;;;;;;;1.58;0.90;;;21.50;33.90;;;;;;4992898;28;20398;-62
2022/04/04 04:30:23;;;;;;;2.22;0.93;;;21.50;34.10;;;;;;5006923;28;20751;-64
2022/04/04 04:32:51;;;;;;;1.80;1.10;;;21.50;33.90;;;;;;5000825;28;20400;-64
2022/04/04 04:35:18;;;;;;;2.70;1.13;;;21.50;34.40;;;;;;5022337;28;20481;-63
2022/04/04 04:37:44;;;;;;;3.63;0.90;;;21.50;33.40;;;;;;5013138;28;20400;-63
2022/04/04 04:40:11;;;;;;;2.05;1.00;;;21.50;33.90;;;;;;5002479;28;20894;-63
2022/04/04 04:42:37;;;;;;;4.28;1.15;;;21.50;33.90;;;;;;5009446;28;20759;-63
2022/04/04 04:45:05;;;;;;;1.90;1.00;;;21.60;33.40;;;;;;5007748;28;20546;-63
2022/04/04 04:47:32;;;;;;;1.58;0.95;;;21.50;33.60;;;;;;4989058;28;20413;-63
2022/04/04 04:49:59;;;;;;;1.30;1.00;;;21.60;33.80;;;;;;4984356;28;20390;-64
2022/04/04 04:52:25;;;;;;;2.55;1.10;;;21.60;33.70;;;;;;4986158;28;20488;-63
2022/04/04 04:54:52;;;;;;;1.30;0.98;;;21.50;33.50;;;;;;4997206;28;20400;-63
2022/04/04 04:57:18;;;;;;;2.55;0.90;;;21.50;33.60;;;;;;4998220;28;20394;-68
2022/04/04 04:59:44;;;;;;;1.67;0.90;;;21.50;33.50;;;;;;5055599;22;20433;-63
2022/04/04 05:02:09;;;;;;;3.93;1.20;;;21.50;33.30;;;;;;5009768;28;20397;-63
2022/04/04 05:04:35;;;;;;;7.82;1.70;;;21.40;33.60;;;;;;5011610;28;20428;-63
2022/04/04 05:07:01;;;;;;;8.07;1.63;;;21.50;34.10;;;;;;5008430;28;20476;-63
2022/04/04 05:09:26;;;;;;;14.60;3.40;;;21.50;34.40;;;;;;5011925;28;20397;-63
2022/04/04 05:11:53;;;;;;;8.80;2.40;;;21.60;37.30;;;;;;5011755;28;20883;-64
2022/04/04 05:14:19;;;;;;;8.43;2.13;;;21.70;37.50;;;;;;5011361;28;20473;-64
2022/04/04 05:16:46;;;;;;;10.35;2.33;;;21.80;37.20;;;;;;5011962;28;20438;-64
2022/04/04 05:19:13;;;;;;;9.95;2.65;;;21.70;36.60;;;;;;5011206;28;20389;-64
2022/04/04 05:21:40;;;;;;;13.45;2.50;;;21.70;36.80;;;;;;5011747;28;20785;-64
2022/04/04 05:24:07;;;;;;;10.73;2.70;;;21.70;37.00;;;;;;5011581;28;20389;-63
2022/04/04 05:26:33;;;;;;;11.43;3.30;;;21.70;36.80;;;;;;5011490;28;20888;-64
2022/04/04 05:28:59;;;;;;;10.45;2.60;;;21.70;36.30;;;;;;5011164;28;20396;-64
2022/04/04 05:31:25;;;;;;;6.28;2.60;;;21.80;36.70;;;;;;5011418;28;20396;-64
2022/04/04 05:33:54;;;;;;;9.18;3.05;;;21.80;36.20;;;;;;5008310;28;20401;-64
2022/04/04 05:36:20;;;;;;;9.80;2.63;;;21.80;36.20;;;;;;5001818;28;20406;-65
2022/04/04 05:38:50;;;;;;;7.47;2.47;;;21.80;36.00;;;;;;5002596;28;20386;-64
2022/04/04 05:41:17;;;;;;;7.20;2.65;;;21.80;35.60;;;;;;5000277;28;20454;-64
2022/04/04 05:43:44;;;;;;;9.63;3.03;;;21.80;35.60;;;;;;5004767;28;20404;-65
2022/04/04 05:46:16;;;;;;;7.28;2.38;;;21.70;35.70;;;;;;5010967;28;20471;-66
2022/04/04 05:48:42;;;;;;;7.43;2.50;;;21.70;34.70;;;;;;5011256;28;20726;-65
2022/04/04 05:51:09;;;;;;;5.10;2.50;;;21.70;35.50;;;;;;5008991;28;20871;-65
2022/04/04 05:53:35;;;;;;;5.47;2.42;;;21.70;35.30;;;;;;5011118;28;20415;-65
2022/04/04 05:56:02;;;;;;;5.65;2.30;;;21.80;35.10;;;;;;5002593;28;20442;-65
2022/04/04 05:58:28;;;;;;;5.53;2.33;;;21.80;34.60;;;;;;5005163;28;20463;-65
2022/04/04 06:00:54;;;;;;;4.85;2.33;;;21.80;34.20;;;;;;5005870;28;20470;-64
2022/04/04 06:03:20;;;;;;;4.43;2.38;;;21.80;33.80;;;;;;4991533;28;20425;-64
2022/04/04 06:05:49;;;;;;;7.68;3.00;;;21.70;33.70;;;;;;4993086;28;20426;-65
2022/04/04 06:08:16;;;;;;;5.78;2.45;;;21.60;33.50;;;;;;4998844;28;20465;-65
2022/04/04 06:10:45;;;;;;;6.00;3.00;;;21.60;33.80;;;;;;5000321;28;20409;-65
2022/04/04 06:13:15;;;;;;;5.32;2.40;;;21.70;33.80;;;;;;5000347;28;20451;-65
2022/04/04 06:15:42;;;;;;;7.75;2.83;;;21.70;33.70;;;;;;5000467;28;20413;-65
2022/04/04 06:18:08;;;;;;;6.07;2.67;;;21.70;33.70;;;;;;5000154;28;20404;-65
2022/04/04 06:20:34;;;;;;;4.78;3.10;;;21.70;33.50;;;;;;5002014;28;20476;-65
2022/04/04 06:23:00;;;;;;;5.63;2.80;;;21.70;33.40;;;;;;4994568;28;20403;-65
2022/04/04 06:25:26;;;;;;;5.60;2.87;;;21.70;33.60;;;;;;4994821;28;20391;-65
2022/04/04 06:27:52;;;;;;;3.90;2.60;;;21.70;32.70;;;;;;4994860;28;20457;-65
2022/04/04 06:30:18;;;;;;;4.65;3.20;;;21.60;33.10;;;;;;4994761;28;20394;-65
2022/04/04 06:32:44;;;;;;;4.72;2.65;;;21.60;32.80;;;;;;4994823;28;20442;-65
2022/04/04 06:35:12;;;;;;;4.85;3.00;;;21.50;32.60;;;;;;4994362;28;20916;-64
2022/04/04 06:37:38;;;;;;;5.07;2.80;;;21.50;32.50;;;;;;4994267;28;20402;-65
2022/04/04 06:40:05;;;;;;;4.88;2.65;;;21.50;33.00;;;;;;4994459;28;20414;-65
2022/04/04 06:42:38;;;;;;;3.88;2.47;;;21.50;33.30;;;;;;4993503;28;20918;-64
2022/04/04 06:45:06;;;;;;;4.70;2.58;;;21.50;33.10;;;;;;4994105;28;20395;-64
2022/04/04 06:47:32;;;;;;;4.55;2.38;;;21.40;33.00;;;;;;4994386;28;20401;-64
2022/04/04 06:49:59;;;;;;;4.35;2.65;;;21.40;32.90;;;;;;4995416;28;20851;-64
2022/04/04 06:52:25;;;;;;;3.25;2.30;;;21.40;32.70;;;;;;4993572;28;20763;-65
2022/04/04 06:54:53;;;;;;;3.65;2.75;;;21.50;32.80;;;;;;4994110;28;20402;-65
2022/04/04 06:57:20;;;;;;;4.50;2.72;;;21.50;32.50;;;;;;4993778;28;20758;-65
2022/04/04 06:59:46;;;;;;;4.90;2.70;;;21.50;32.70;;;;;;4993932;28;20452;-65
2022/04/04 07:02:11;;;;;;;7.73;2.80;;;21.60;33.90;;;;;;4993788;28;20398;-65
2022/04/04 07:04:37;;;;;;;4.57;2.70;;;21.70;34.20;;;;;;4996553;28;20385;-65
2022/04/04 07:07:06;;;;;;;6.28;2.38;;;21.80;35.20;;;;;;5000061;28;20538;-64
2022/04/04 07:09:32;;;;;;;5.15;2.22;;;21.80;34.70;;;;;;5002177;28;20388;-64
2022/04/04 07:11:58;;;;;;;4.10;2.35;;;21.80;34.10;;;;;;5003344;28;20404;-64
2022/04/04 07:14:24;;;;;;;3.60;2.20;;;21.80;33.80;;;;;;5001735;28;21236;-64
2022/04/04 07:16:52;;;;;;;6.13;2.50;;;21.90;33.70;;;;;;5000888;28;20405;-65
2022/04/04 07:19:23;;;;;;;4.13;2.20;;;21.90;33.30;;;;;;5002839;28;20393;-65
2022/04/04 07:21:52;;;;;;;4.25;2.22;;;21.90;33.20;;;;;;5001595;28;20513;-65
2022/04/04 07:24:19;;;;;;;6.82;2.03;;;21.90;33.00;;;;;;5000900;28;20505;-65
2022/04/04 07:26:48;;;;;;;3.13;2.00;;;22.00;33.10;;;;;;5002534;28;20409;-63
2022/04/04 07:29:16;;;;;;;5.10;2.05;;;22.00;33.00;;;;;;5001680;28;21175;-65
2022/04/04 07:31:42;;;;;;;3.78;1.90;;;22.00;33.10;;;;;;5001071;28;20685;-65
2022/04/04 07:34:11;;;;;;;3.70;2.17;;;22.00;32.60;;;;;;5002218;28;20443;-64
2022/04/04 07:36:40;;;;;;;3.45;2.10;;;22.10;32.80;;;;;;5003170;28;20423;-65
2022/04/04 07:39:06;;;;;;;4.53;1.90;;;22.10;33.10;;;;;;5001772;28;20426;-65
2022/04/04 07:41:33;;;;;;;2.60;1.77;;;22.10;32.90;;;;;;5001282;28;20916;-65
2022/04/04 07:43:58;;;;;;;4.18;2.17;;;22.10;32.90;;;;;;5002931;28;20385;-65
2022/04/04 07:46:24;;;;;;;3.85;2.00;;;22.10;32.70;;;;;;5001684;28;20391;-65
2022/04/04 07:48:54;;;;;;;3.80;1.90;;;22.10;32.60;;;;;;5001806;28;20420;-65
2022/04/04 07:51:20;;;;;;;3.67;1.98;;;22.10;32.60;;;;;;5002211;28;20396;-64
2022/04/04 07:53:46;;;;;;;2.95;1.90;;;22.20;33.00;;;;;;5001444;28;20394;-64
2022/04/04 07:56:12;;;;;;;3.90;2.10;;;22.20;32.70;;;;;;5001287;28;20404;-65
2022/04/04 07:58:37;;;;;;;5.00;1.87;;;22.30;32.70;;;;;;5003629;28;20408;-65
2022/04/04 08:01:03;;;;;;;3.75;1.65;;;22.30;32.20;;;;;;5012367;28;20429;-64
2022/04/04 08:03:29;;;;;;;3.73;2.10;;;22.30;32.10;;;;;;5013478;28;20396;-64
2022/04/04 08:05:55;;;;;;;4.35;2.10;;;22.20;31.40;;;;;;5013647;28;20405;-64
2022/04/04 08:08:21;;;;;;;2.45;1.85;;;22.20;31.80;;;;;;5012472;28;20397;-64
2022/04/04 08:10:46;;;;;;;2.65;1.90;;;22.10;31.40;;;;;;5012828;28;20427;-64
2022/04/04 08:13:12;;;;;;;3.70;1.98;;;22.10;31.70;;;;;;5012703;28;20479;-65
2022/04/04 08:15:38;;;;;;;3.30;1.83;;;22.20;32.20;;;;;;5012626;28;20381;-65
2022/04/04 08:18:04;;;;;;;4.40;2.00;;;22.30;32.20;;;;;;5011967;28;20570;-66
2022/04/04 08:20:30;;;;;;;6.28;2.63;;;22.40;32.90;;;;;;5012708;28;20424;-65
2022/04/04 08:22:56;;;;;;;6.68;2.50;;;22.40;33.00;;;;;;5012156;28;20861;-65
2022/04/04 08:25:21;;;;;;;3.40;2.10;;;22.50;32.80;;;;;;5012174;28;20401;-65
2022/04/04 08:27:47;;;;;;;2.75;1.80;;;22.50;32.50;;;;;;5012186;28;20425;-64
2022/04/04 08:30:15;;;;;;;3.30;1.67;;;22.50;32.00;;;;;;5012093;28;20487;-64
2022/04/04 08:32:42;;;;;;;3.17;1.58;;;22.50;31.50;;;;;;5012087;28;20408;-65
2022/04/04 08:35:10;;;;;;;2.58;1.65;;;22.50;31.10;;;;;;5012128;28;20401;-64
2022/04/04 08:37:37;;;;;;;2.70;1.45;;;22.60;30.50;;;;;;5010808;28;20415;-64
2022/04/04 08:40:04;;;;;;;2.72;1.73;;;22.50;31.00;;;;;;5011731;28;20412;-64
2022/04/04 08:42:30;;;;;;;2.50;1.50;;;22.60;30.90;;;;;;5011781;28;20400;-64
2022/04/04 08:44:58;;;;;;;2.75;1.60;;;22.60;31.00;;;;;;5012047;28;20415;-64
2022/04/04 08:47:25;;;;;;;4.50;1.63;;;22.60;31.40;;;;;;5010300;28;20514;-64
2022/04/04 08:49:52;;;;;;;2.65;1.50;;;22.60;31.30;;;;;;5011620;28;20422;-64
2022/04/04 08:52:19;;;;;;;3.88;1.70;;;22.70;31.30;;;;;;5011242;28;20923;-64
2022/04/04 08:54:45;;;;;;;2.00;1.42;;;22.60;31.10;;;;;;5011645;28;20392;-63
2022/04/04 08:57:10;;;;;;;2.10;1.42;;;22.60;31.20;;;;;;5011625;28;20437;-64
2022/04/04 08:59:36;;;;;;;1.75;1.40;;;22.70;31.30;;;;;;5011811;28;20413;-63
2022/04/04 09:02:02;;;;;;;3.10;1.80;;;22.70;31.30;;;;;;5011180;28;20424;-64
2022/04/04 09:04:29;;;;;;;2.35;1.60;;;22.70;31.20;;;;;;5011867;28;20392;-64
2022/04/04 09:06:57;;;;;;;2.40;1.38;;;22.80;30.90;;;;;;5011936;28;20413;-64
2022/04/04 09:09:36;;;;;;;2.40;1.60;;;23.00;30.70;;;;;;5011613;28;20397;-63
2022/04/04 09:12:06;;;;;;;2.80;1.70;;;23.00;30.60;;;;;;5011555;28;20397;-64
2022/04/04 09:14:37;;;;;;;2.33;1.60;;;23.10;30.50;;;;;;5011779;28;20389;-63
2022/04/04 09:17:05;;;;;;;1.90;1.33;;;23.10;30.40;;;;;;5011571;28;20401;-63
2022/04/04 09:19:31;;;;;;;1.88;1.23;;;23.10;30.30;;;;;;5012638;28;20389;-64
2022/04/04 09:22:02;;;;;;;2.58;1.42;;;23.10;30.30;;;;;;5011914;28;20438;-64
2022/04/04 09:25:01;;;;;;;1.67;1.30;;;23.10;30.40;;;;;;5011687;28;20418;-64
2022/04/04 09:27:36;;;;;;;1.80;1.30;;;23.20;30.20;;;;;;5011188;28;20385;-63
2022/04/04 09:30:07;;;;;;;2.20;1.35;;;23.20;30.10;;;;;;5011428;28;20746;-63
2022/04/04 09:32:39;;;;;;;2.13;1.20;;;23.30;30.10;;;;;;5011417;28;20400;-63
2022/04/04 09:35:13;;;;;;;2.67;1.20;;;23.20;30.00;;;;;;5012035;28;20381;-64
2022/04/04 09:37:40;;;;;;;1.80;1.30;;;23.20;30.00;;;;;;5011150;28;21000;-64
2022/04/04 09:40:06;;;;;;;1.47;1.10;;;23.20;30.00;;;;;;5011120;28;20482;-64
2022/04/04 09:42:32;;;;;;;1.67;1.38;;;23.20;30.00;;;;;;5011244;28;20601;-64
2022/04/04 09:45:03;;;;;;;1.98;1.27;;;23.20;30.00;;;;;;5026673;28;20452;-64
2022/04/04 09:47:48;;;;;;;1.70;1.10;;;23.20;30.00;;;;;;5011240;28;20411;-64
2022/04/04 09:50:46;;;;;;;2.08;1.30;;;23.20;30.00;;;;;;5011027;28;20479;-63
2022/04/04 09:53:24;;;;;;;2.33;1.52;;;23.20;30.00;;;;;;5011747;28;20479;-62
2022/04/04 09:55:52;;;;;;;2.55;1.60;;;23.20;30.00;;;;;;5014993;28;20399;-62
2022/04/04 09:58:26;;;;;;;1.98;1.65;;;23.20;30.00;;;;;;5015097;28;20454;-62
2022/04/04 10:00:52;;;;;;;2.00;1.70;;;23.20;30.00;;;;;;5014541;28;20420;-63
2022/04/04 10:03:20;;;;;;;2.45;1.67;;;23.30;30.00;;;;;;5014489;28;20405;-63
2022/04/04 10:05:56;;;;;;;2.22;1.40;;;23.20;30.40;;;;;;5014698;28;20381;-63
2022/04/04 10:08:24;;;;;;;2.35;1.50;;;23.20;30.40;;;;;;5014211;28;20472;-63
2022/04/04 10:10:51;;;;;;;2.70;1.60;;;23.10;30.50;;;;;;5014636;28;20421;-63
2022/04/04 10:13:17;;;;;;;2.00;1.60;;;23.10;30.30;;;;;;5014005;28;20476;-63
2022/04/04 10:15:43;;;;;;;2.60;1.60;;;23.10;30.50;;;;;;5014619;28;20377;-64
2022/04/04 10:18:10;;;;;;;2.50;1.70;;;23.20;30.50;;;;;;5014969;28;20389;-65
2022/04/04 10:20:36;;;;;;;3.10;1.60;;;23.10;30.30;;;;;;5014939;28;20746;-64
2022/04/04 10:23:04;;;;;;;2.47;1.60;;;23.20;30.20;;;;;;5014429;28;20405;-64
2022/04/04 10:25:32;;;;;;;2.55;1.80;;;23.20;30.60;;;;;;5014554;28;20761;-64
2022/04/04 10:27:59;;;;;;;1.80;1.50;;;23.10;30.50;;;;;;5014407;28;20389;-64
2022/04/04 10:30:32;;;;;;;2.30;1.60;;;23.20;30.80;;;;;;5015432;28;20437;-64
2022/04/04 10:32:58;;;;;;;2.55;1.60;;;23.30;31.30;;;;;;5015975;28;20392;-64
2022/04/04 10:35:26;;;;;;;4.53;1.70;;;23.30;31.60;;;;;;5014263;28;20389;-64
2022/04/04 10:37:52;;;;;;;2.83;1.45;;;23.30;31.50;;;;;;5014393;28;20865;-64
2022/04/04 10:40:24;;;;;;;4.57;1.80;;;23.30;31.70;;;;;;5014419;28;20900;-64
2022/04/04 10:43:09;;;;;;;2.88;1.60;;;23.30;31.80;;;;;;5014585;28;20408;-64
2022/04/04 10:45:51;;;;;;;3.20;1.58;;;23.30;30.80;;;;;;5014488;28;20483;-64
2022/04/04 10:48:18;;;;;;;2.70;1.40;;;23.20;31.30;;;;;;5014241;28;20397;-63
2022/04/04 10:50:45;;;;;;;2.30;1.50;;;23.20;31.70;;;;;;5011825;28;20483;-64
2022/04/04 10:53:10;;;;;;;3.15;1.40;;;23.30;31.40;;;;;;5002636;28;20406;-64
2022/04/04 10:55:36;;;;;;;3.30;1.40;;;23.30;31.30;;;;;;5002557;28;20580;-64
2022/04/04 10:58:14;;;;;;;3.60;1.60;;;23.30;31.20;;;;;;5004103;28;20953;-64
2022/04/04 11:01:14;;;;;;;3.00;1.30;;;23.30;31.00;;;;;;5003879;28;20414;-64
2022/04/04 11:03:42;;;;;;;2.10;1.60;;;23.40;30.90;;;;;;5003556;28;20401;-65
2022/04/04 11:09:04;;;;;;;2.85;1.48;;;23.40;30.70;;;;;;5003488;28;20801;-64
2022/04/04 11:11:44;;;;;;;1.87;1.40;;;23.30;30.40;;;;;;5001164;28;20490;-64
2022/04/04 11:14:37;;;;;;;3.03;1.40;;;23.40;30.50;;;;;;4994366;28;20389;-65
2022/04/04 11:17:08;;;;;;;1.67;1.30;;;23.50;30.50;;;;;;4982323;28;20442;-65
2022/04/04 11:19:53;;;;;;;2.53;1.40;;;23.50;30.30;;;;;;5008916;28;20457;-64
2022/04/04 11:22:27;;;;;;;1.67;1.30;;;23.50;30.30;;;;;;4993936;28;20407;-65
2022/04/04 11:24:53;;;;;;;2.10;1.20;;;23.50;30.20;;;;;;4993716;28;20771;-65
2022/04/04 11:27:25;;;;;;;1.90;1.30;;;23.60;30.80;;;;;;4993582;28;20405;-65
2022/04/04 11:29:51;;;;;;;1.65;1.38;;;23.60;30.20;;;;;;4992566;28;20809;-65
2022/04/04 11:32:34;;;;;;;2.15;1.23;;;23.60;30.30;;;;;;4994097;28;20834;-66
2022/04/04 11:35:18;;;;;;;1.80;1.20;;;23.60;30.20;;;;;;4994058;28;20394;-65
2022/04/04 11:37:48;;;;;;;2.20;1.25;;;23.60;30.10;;;;;;4993733;28;20394;-66
2022/04/04 11:40:29;;;;;;;2.03;1.27;;;23.60;30.00;;;;;;4993867;28;20429;-66
2022/04/04 11:42:56;;;;;;;1.92;1.48;;;23.60;30.00;;;;;;4993891;28;20391;-66
2022/04/04 11:45:27;;;;;;;1.58;1.30;;;23.60;30.00;;;;;;4993373;28;20713;-65
2022/04/04 11:48:05;;;;;;;2.70;1.35;;;23.70;30.00;;;;;;4993599;28;20394;-65
2022/04/04 11:50:34;;;;;;;1.90;1.30;;;23.60;29.80;;;;;;4993619;28;20418;-65
2022/04/04 11:53:02;;;;;;;2.50;1.50;;;23.60;29.80;;;;;;4993520;28;20395;-65
2022/04/04 11:55:32;;;;;;;3.20;1.60;;;23.60;29.80;;;;;;4993045;28;20875;-65
2022/04/04 11:58:00;;;;;;;3.00;1.55;;;23.60;29.60;;;;;;4993614;28;20394;-65
2022/04/04 12:00:33;;;;;;;1.63;1.30;;;23.70;29.50;;;;;;4993253;28;20418;-65
2022/04/04 12:03:13;;;;;;;2.40;1.30;;;23.60;29.20;;;;;;4993490;28;20398;-65
2022/04/04 12:05:40;;;;;;;1.98;1.38;;;23.60;29.50;;;;;;4992071;28;20411;-65
2022/04/04 12:08:06;;;;;;;1.98;1.50;;;23.60;29.50;;;;;;4997907;28;20405;-65
2022/04/04 12:10:36;;;;;;;2.10;1.30;;;23.50;29.60;;;;;;5015342;28;20453;-65
2022/04/04 12:13:05;;;;;;;1.75;1.30;;;23.60;29.70;;;;;;5014235;28;20400;-65
2022/04/04 12:15:34;;;;;;;2.50;1.17;;;23.60;29.70;;;;;;5000143;28;20409;-65
2022/04/04 12:18:00;;;;;;;1.45;1.20;;;23.60;29.90;;;;;;5001169;28;20378;-64
2022/04/04 12:20:35;;;;;;;1.88;1.10;;;23.70;29.90;;;;;;5002029;28;20479;-64
2022/04/04 12:25:45;;;;;;;2.10;1.10;;;23.80;29.80;;;;;;5002000;28;20394;-64
2022/04/04 12:28:22;;;;;;;2.10;1.10;;;23.80;29.90;;;;;;5001304;28;20384;-65
2022/04/04 12:30:48;;;;;;;1.60;1.15;;;23.80;29.90;;;;;;5001319;28;20882;-65
2022/04/04 12:33:14;;;;;;;2.00;1.20;;;23.80;30.00;;;;;;5000692;28;20401;-65
2022/04/04 12:35:48;;;;;;;1.70;1.05;;;23.80;29.90;;;;;;5001115;28;20815;-64
2022/04/04 12:38:35;;;;;;;2.55;0.90;;;23.90;30.10;;;;;;5001907;28;20433;-65
2022/04/04 12:41:13;;;;;;;1.50;1.00;;;23.90;29.90;;;;;;5001686;28;20413;-65
2022/04/04 12:43:41;;;;;;;1.30;1.10;;;23.90;29.90;;;;;;5002917;28;20389;-65
2022/04/04 12:46:25;;;;;;;1.52;1.15;;;23.90;30.00;;;;;;5000853;28;20430;-65
2022/04/04 12:48:51;;;;;;;1.77;1.10;;;23.90;30.00;;;;;;5001314;28;20378;-64
2022/04/04 12:51:31;;;;;;;1.73;1.23;;;24.00;30.00;;;;;;4998403;28;20857;-65
2022/04/04 12:54:00;;;;;;;1.55;0.93;;;23.90;30.10;;;;;;5002108;28;20883;-65
2022/04/04 12:56:27;;;;;;;1.40;1.13;;;23.90;29.80;;;;;;5000815;28;20472;-65
2022/04/04 12:59:10;;;;;;;2.47;1.10;;;23.90;29.50;;;;;;5001163;28;20765;-65
2022/04/04 13:01:37;;;;;;;1.80;1.20;;;23.80;29.70;;;;;;5001789;28;20426;-62
2022/04/04 13:04:21;;;;;;;2.00;1.30;;;23.90;29.90;;;;;;5000024;28;20854;-62
2022/04/04 13:06:47;;;;;;;1.95;1.30;;;23.90;29.80;;;;;;5000735;28;20421;-63